createdAt,value
2023-05-27T00:01:01.586Z,6.0
2023-05-27T00:06:01.071Z,5.8
2023-05-27T00:11:01.068Z,5.2
2023-05-27T00:16:01.105Z,5.0
2023-05-27T00:21:01.084Z,5.1
2023-05-27T00:26:01.638Z,5.2
2023-05-27T00:31:01.062Z,5.4
2023-05-27T00:36:01.176Z,6.0
2023-05-27T00:46:01.074Z,6.4
2023-05-27T00:51:01.079Z,7.3
2023-05-27T00:56:01.112Z,7.4
2023-05-27T01:01:01.109Z,8.6
2023-05-27T01:06:01.484Z,8.9
2023-05-27T01:11:04.327Z,8.8
2023-05-27T01:16:02.560Z,8.3
2023-05-27T01:26:01.177Z,7.4
2023-05-27T01:31:01.140Z,7.2
2023-05-27T01:36:01.389Z,7.8
2023-05-27T01:46:01.062Z,7.7
2023-05-27T01:51:01.091Z,7.2
2023-05-27T01:56:01.084Z,7.1
2023-05-27T02:01:01.113Z,7.0
2023-05-27T02:06:01.064Z,7.5
2023-05-27T02:11:01.099Z,8.0
2023-05-27T02:16:01.096Z,9.0
2023-05-27T02:21:01.136Z,9.4
2023-05-27T02:26:01.063Z,9.2
2023-05-27T02:31:01.228Z,8.9
2023-05-27T02:36:01.139Z,9.8
2023-05-27T02:46:01.082Z,9.9
2023-05-27T02:51:01.103Z,10.1
2023-05-27T02:56:01.063Z,10.0
2023-05-27T03:01:01.078Z,9.2
2023-05-27T03:06:01.081Z,8.3
2023-05-27T03:11:01.095Z,8.4
2023-05-27T03:16:01.105Z,8.2
2023-05-27T03:21:01.078Z,8.7
2023-05-27T03:26:01.194Z,9.4
2023-05-27T03:31:01.107Z,10.0
2023-05-27T03:36:01.086Z,10.1
2023-05-27T03:41:01.065Z,10.0
2023-05-27T03:46:01.096Z,9.7
2023-05-27T03:51:01.109Z,8.8
2023-05-27T03:56:03.957Z,9.3
2023-05-27T04:01:01.068Z,9.4
2023-05-27T04:06:01.101Z,9.7
2023-05-27T04:11:01.105Z,9.9
2023-05-27T04:16:01.100Z,10.1
2023-05-27T04:21:01.068Z,9.5
2023-05-27T04:26:06.184Z,9.7
2023-05-27T04:31:01.077Z,10.5
2023-05-27T04:36:01.082Z,11.4
2023-05-27T04:41:01.992Z,12.4
2023-05-27T04:46:01.496Z,13.1
2023-05-27T04:51:01.736Z,14.1
2023-05-27T04:56:01.522Z,14.4
2023-05-27T05:01:01.630Z,13.8
2023-05-27T05:06:01.641Z,14.3
2023-05-27T05:11:01.564Z,14.1
2023-05-27T05:16:01.601Z,13.1
2023-05-27T05:21:01.592Z,12.8
2023-05-27T05:31:01.437Z,11.6
2023-05-27T05:36:02.122Z,11.0
2023-05-27T05:41:01.569Z,10.8
2023-05-27T05:46:01.941Z,10.7
2023-05-27T05:51:02.662Z,10.3
2023-05-27T05:56:01.821Z,11.4
2023-05-27T06:01:01.588Z,12.7
2023-05-27T06:06:01.683Z,14.6
2023-05-27T06:11:01.547Z,15.7
2023-05-27T06:16:01.858Z,16.8
2023-05-27T06:21:01.113Z,18.0
2023-05-27T06:26:01.618Z,19.1
2023-05-27T06:31:01.135Z,18.3
2023-05-27T06:36:01.621Z,15.9
2023-05-27T06:41:01.437Z,14.2
2023-05-27T06:46:04.222Z,12.2
2023-05-27T06:51:01.086Z,9.4
2023-05-27T06:56:01.712Z,8.3
2023-05-27T07:01:01.103Z,8.9
2023-05-27T07:06:01.140Z,8.2
2023-05-27T07:11:01.161Z,7.7
2023-05-27T07:16:01.084Z,8.0
2023-05-27T07:21:01.138Z,7.2
2023-05-27T07:26:01.089Z,6.5
2023-05-27T07:31:01.111Z,6.9
2023-05-27T07:36:01.078Z,6.4
2023-05-27T07:51:01.772Z,7.2
2023-05-27T07:56:01.528Z,8.0
2023-05-27T08:07:01.113Z,8.3
2023-05-27T08:12:01.054Z,8.5
2023-05-27T08:17:01.099Z,8.2
2023-05-27T08:22:06.402Z,7.3
2023-05-27T08:27:01.770Z,7.6
2023-05-27T08:32:01.751Z,7.4
2023-05-27T08:37:01.639Z,7.0
2023-05-27T08:42:02.073Z,6.2
2023-05-27T08:52:01.063Z,6.5
2023-05-27T08:57:01.090Z,6.2
2023-05-27T09:02:01.174Z,6.4
2023-05-27T09:07:04.564Z,6.6
2023-05-27T09:12:02.071Z,7.2
2023-05-27T09:17:05.843Z,6.6
2023-05-27T09:22:01.066Z,7.9
2023-05-27T09:27:01.582Z,8.3
2023-05-27T09:32:01.084Z,7.9
2023-05-27T09:37:01.726Z,7.2
2023-05-27T09:42:01.145Z,10.3
2023-05-27T09:47:01.964Z,8.6
2023-05-27T09:52:01.057Z,8.1
2023-05-27T10:02:02.044Z,7.9
2023-05-27T10:07:02.257Z,4.4
2023-05-27T10:12:01.097Z,5.1
2023-05-27T10:17:02.083Z,4.8
2023-05-27T10:27:02.022Z,4.2
2023-05-27T10:32:01.163Z,4.3
2023-05-27T10:37:01.143Z,4.0
2023-05-27T10:42:01.104Z,4.4
2023-05-27T10:47:01.167Z,4.3
2023-05-27T10:52:01.612Z,4.4
2023-05-27T11:02:01.115Z,4.2
2023-05-27T11:07:03.272Z,3.8
2023-05-27T11:12:02.201Z,3.6
2023-05-27T11:17:01.057Z,4.0
2023-05-27T11:22:01.090Z,4.2
2023-05-27T11:27:08.023Z,4.1
2023-05-27T11:32:02.126Z,3.3
2023-05-27T11:37:01.214Z,3.2
2023-05-27T11:42:08.291Z,3.1
2023-05-27T11:47:01.087Z,2.7
2023-05-27T11:52:01.066Z,2.9
2023-05-27T11:57:01.070Z,4.0
2023-05-27T12:02:01.786Z,4.3
2023-05-27T12:07:03.231Z,4.4
2023-05-27T12:12:01.073Z,4.7
2023-05-27T12:17:01.073Z,4.9
2023-05-27T12:27:01.112Z,5.0
2023-05-27T12:32:01.120Z,4.8
2023-05-27T12:42:01.678Z,4.5
2023-05-27T12:47:01.093Z,4.3
2023-05-27T12:52:01.584Z,4.4
2023-05-27T12:57:01.095Z,4.6
2023-05-27T13:02:01.524Z,4.3
2023-05-27T13:12:01.558Z,4.1
2023-05-27T13:17:01.194Z,3.9
2023-05-27T13:32:02.194Z,4.2
2023-05-27T13:37:12.740Z,4.3
2023-05-27T14:05:02.693Z,2.8
2023-05-27T14:10:02.722Z,2.9
2023-05-27T14:16:01.099Z,4.3
2023-05-27T14:21:01.078Z,4.6
2023-05-27T14:26:01.059Z,4.0
2023-05-27T14:31:07.078Z,4.3
2023-05-27T14:36:01.067Z,4.6
2023-05-27T14:41:01.088Z,4.0
2023-05-27T14:46:01.753Z,3.6
2023-05-27T14:51:02.335Z,3.2
2023-05-27T14:56:01.101Z,5.4
2023-05-27T15:01:01.121Z,5.5
2023-05-27T15:06:01.074Z,5.3
2023-05-27T15:11:02.072Z,5.7
2023-05-27T15:16:01.063Z,6.1
2023-05-27T15:21:01.101Z,4.0
2023-05-27T15:26:01.517Z,3.7
2023-05-27T15:31:01.092Z,4.2
2023-05-27T15:36:01.694Z,3.4
2023-05-27T15:41:01.102Z,4.1
2023-05-27T15:51:01.078Z,4.2
2023-05-27T15:56:02.549Z,4.1
2023-05-27T16:01:01.072Z,4.8
2023-05-27T16:06:01.071Z,4.4
2023-05-27T16:11:01.106Z,4.9
2023-05-27T16:16:01.107Z,5.2
2023-05-27T16:31:01.545Z,5.4
2023-05-27T16:36:01.565Z,6.1
2023-05-27T16:41:01.784Z,6.0
2023-05-27T16:46:01.081Z,7.4
2023-05-27T16:51:01.063Z,7.2
2023-05-27T16:56:02.918Z,7.3
2023-05-27T17:01:01.080Z,6.2
2023-05-27T17:06:01.058Z,6.0
2023-05-27T17:11:01.053Z,4.3
2023-05-27T17:16:01.110Z,4.7
2023-05-27T17:21:01.134Z,4.1
2023-05-27T17:26:01.146Z,4.5
2023-05-27T17:31:01.631Z,4.2
2023-05-27T17:36:01.103Z,5.2
2023-05-27T17:41:01.679Z,5.0
2023-05-27T17:46:01.070Z,5.7
2023-05-27T17:52:04.610Z,5.1
2023-05-27T17:57:02.448Z,5.2
2023-05-27T18:02:01.070Z,4.0
2023-05-27T18:07:01.196Z,4.1
2023-05-27T18:12:01.101Z,3.9
2023-05-27T18:17:03.753Z,4.5
2023-05-27T18:22:01.095Z,9.2
2023-05-27T18:27:01.077Z,11.6
2023-05-27T18:32:01.149Z,12.5
2023-05-27T18:37:01.613Z,16.2
2023-05-27T18:42:01.071Z,16.7
2023-05-27T18:47:01.453Z,13.4
2023-05-27T18:52:01.095Z,12.9
2023-05-27T18:57:01.080Z,14.7
2023-05-27T19:02:01.075Z,14.5
2023-05-27T19:07:01.683Z,16.5
2023-05-27T19:12:01.493Z,17.6
2023-05-27T19:17:01.916Z,17.8
2023-05-27T19:22:01.570Z,18.0
2023-05-27T19:27:02.018Z,15.8
2023-05-27T19:32:01.157Z,14.4
2023-05-27T19:37:01.653Z,14.1
2023-05-27T19:42:01.053Z,15.3
2023-05-27T19:47:01.140Z,16.9
2023-05-27T19:52:01.567Z,19.0
2023-05-27T19:57:01.612Z,20.4
2023-05-27T20:02:01.853Z,20.6
2023-05-27T20:07:01.782Z,20.2
2023-05-27T20:12:01.085Z,19.1
2023-05-27T20:17:01.084Z,18.5
2023-05-27T20:22:01.674Z,18.4
2023-05-27T20:27:01.610Z,18.3
2023-05-27T20:32:01.087Z,17.8
2023-05-27T20:37:01.112Z,15.7
2023-05-27T20:42:01.053Z,14.6
2023-05-27T20:47:01.068Z,14.1
2023-05-27T20:52:01.182Z,13.9
2023-05-27T20:57:01.070Z,13.6
2023-05-27T21:02:10.238Z,14.4
2023-05-27T21:07:01.082Z,14.6
2023-05-27T21:12:01.098Z,13.8
2023-05-27T21:17:01.089Z,13.4
2023-05-27T21:22:01.055Z,15.1
2023-05-27T21:27:01.726Z,18.6
2023-05-27T21:32:01.167Z,20.1
2023-05-27T21:37:01.058Z,22.7
2023-05-27T21:42:01.588Z,24.2
2023-05-27T21:47:01.893Z,24.5
2023-05-27T21:52:01.479Z,22.3
2023-05-27T21:57:01.069Z,22.8
2023-05-27T22:02:02.392Z,21.9
2023-05-27T22:07:01.709Z,22.0
2023-05-27T22:12:01.102Z,22.2
2023-05-27T22:18:01.598Z,21.6
2023-05-27T22:23:02.274Z,20.8
2023-05-27T22:33:01.215Z,21.4
2023-05-27T22:38:01.535Z,21.2
2023-05-27T22:43:01.064Z,21.4
2023-05-27T22:48:01.167Z,20.5
2023-05-27T22:53:01.147Z,20.8
2023-05-27T22:58:01.584Z,21.2
2023-05-27T23:03:02.064Z,20.7
2023-05-27T23:08:01.065Z,19.6
2023-05-27T23:13:01.513Z,19.7
2023-05-27T23:18:01.196Z,18.8
2023-05-27T23:23:01.093Z,17.1
2023-05-27T23:28:01.081Z,16.6
2023-05-27T23:34:01.116Z,17.4
2023-05-27T23:39:06.171Z,17.1
2023-05-27T23:44:01.055Z,17.0
2023-05-27T23:49:01.116Z,17.5
2023-05-27T23:54:01.081Z,17.6
